Time;durP1;ratioP1;P1;durP2;ratioP2;P2;SDS_P1;SDS_P2;PMS_P1;PMS_P2;Temp;Humidity;BMP_temperature;BMP_pressure;BME280_temperature;BME280_humidity;BME280_pressure;Samples;Min_cycle;Max_cycle;Signal;HPM_P1;HPM_P2
2023/08/30 00:00:04;;;;;;;9.40;8.43;;;22.10;99.90;;;;;;5162774;28;20033;-71
2023/08/30 00:02:36;;;;;;;8.85;7.97;;;22.10;99.90;;;;;;5151387;28;20045;-73
2023/08/30 00:05:09;;;;;;;8.85;8.05;;;22.10;99.90;;;;;;5146262;28;20023;-72
2023/08/30 00:07:40;;;;;;;9.60;8.65;;;22.20;99.90;;;;;;5159761;28;20122;-76
2023/08/30 00:10:11;;;;;;;9.32;8.40;;;22.10;99.90;;;;;;5165379;28;20023;-78
2023/08/30 00:12:42;;;;;;;9.90;8.90;;;22.10;99.90;;;;;;5165222;28;20034;-72
2023/08/30 00:15:14;;;;;;;9.13;8.32;;;22.00;99.90;;;;;;5165303;28;20041;-72
2023/08/30 00:17:45;;;;;;;8.85;8.07;;;21.80;99.90;;;;;;5165031;28;20077;-77
2023/08/30 00:20:16;;;;;;;10.27;9.10;;;22.10;99.90;;;;;;5165155;28;20026;-72
2023/08/30 00:22:51;;;;;;;8.85;7.97;;;22.00;99.90;;;;;;5165111;28;20022;-72
2023/08/30 00:25:21;;;;;;;9.63;8.63;;;22.10;99.90;;;;;;5165186;28;20037;-73
2023/08/30 00:27:52;;;;;;;9.88;8.88;;;22.20;99.90;;;;;;5164472;28;20027;-73
2023/08/30 00:30:23;;;;;;;12.65;8.80;;;22.00;99.90;;;;;;5164905;28;20027;-71
2023/08/30 00:32:54;;;;;;;9.70;8.80;;;22.00;99.90;;;;;;5164798;28;20054;-74
2023/08/30 00:35:25;;;;;;;9.88;9.02;;;22.20;99.90;;;;;;5163602;28;20022;-71
2023/08/30 00:37:56;;;;;;;10.23;9.23;;;22.20;99.90;;;;;;5164987;28;20026;-70
2023/08/30 00:40:28;;;;;;;10.25;9.15;;;22.30;99.90;;;;;;5164909;28;20026;-76
2023/08/30 00:42:59;;;;;;;10.63;9.48;;;22.10;99.90;;;;;;5164955;28;20034;-78
2023/08/30 00:45:30;;;;;;;10.27;9.23;;;22.00;99.90;;;;;;5163362;28;20027;-75
2023/08/30 00:48:01;;;;;;;10.32;9.40;;;22.10;99.90;;;;;;5164713;28;20034;-71
2023/08/30 00:50:32;;;;;;;11.65;9.55;;;22.10;99.90;;;;;;5164706;28;20478;-71
2023/08/30 00:53:05;;;;;;;10.52;9.55;;;22.10;99.90;;;;;;5164570;28;20490;-74
2023/08/30 00:55:37;;;;;;;11.15;9.50;;;22.10;99.90;;;;;;5164002;28;20423;-76
2023/08/30 00:58:09;;;;;;;11.40;10.43;;;22.00;99.90;;;;;;5164431;28;20041;-77
2023/08/30 01:00:40;;;;;;;10.77;9.80;;;22.00;99.90;;;;;;5163611;28;20823;-72
2023/08/30 01:03:11;;;;;;;16.05;10.85;;;22.10;99.90;;;;;;5164510;28;20038;-73
2023/08/30 01:05:42;;;;;;;10.95;9.95;;;22.00;99.90;;;;;;5157571;28;20030;-72
2023/08/30 01:08:14;;;;;;;10.82;9.82;;;22.00;99.90;;;;;;5162585;28;20030;-71
2023/08/30 01:11:00;;;;;;;11.63;10.60;;;22.00;99.90;;;;;;5163836;28;20762;-72
2023/08/30 01:13:37;;;;;;;12.57;11.30;;;22.10;99.90;;;;;;5162907;28;20054;-74
2023/08/30 01:16:08;;;;;;;14.05;10.63;;;22.00;99.90;;;;;;5163763;28;20022;-73
2023/08/30 01:18:40;;;;;;;11.75;10.60;;;22.10;99.90;;;;;;5164348;28;20027;-72
2023/08/30 01:21:26;;;;;;;13.60;11.98;;;22.20;99.90;;;;;;5164744;28;20023;-75
2023/08/30 01:24:02;;;;;;;11.88;10.93;;;22.10;99.90;;;;;;5164619;28;20113;-76
2023/08/30 01:26:39;;;;;;;13.02;11.63;;;22.00;99.90;;;;;;5150316;28;20035;-73
2023/08/30 01:29:12;;;;;;;12.32;11.23;;;22.00;99.90;;;;;;5155314;28;20027;-72
2023/08/30 01:31:46;;;;;;;13.65;12.35;;;22.10;99.90;;;;;;5164228;28;20129;-73
2023/08/30 01:34:18;;;;;;;13.60;12.25;;;22.10;99.90;;;;;;5164464;28;20031;-76
2023/08/30 01:36:49;;;;;;;12.52;11.35;;;22.00;99.90;;;;;;5163178;28;20042;-75
2023/08/30 01:39:22;;;;;;;14.73;12.77;;;22.00;99.90;;;;;;5163174;28;20050;-74
2023/08/30 01:41:58;;;;;;;15.20;12.00;;;21.90;99.90;;;;;;5164420;28;20098;-76
2023/08/30 01:44:30;;;;;;;13.32;12.13;;;21.80;99.90;;;;;;5164392;28;20399;-75
2023/08/30 01:47:02;;;;;;;13.02;11.82;;;22.00;99.90;;;;;;5164431;28;20100;-74
2023/08/30 01:49:34;;;;;;;14.45;13.05;;;22.00;99.90;;;;;;5164376;28;20510;-73
2023/08/30 01:52:06;;;;;;;14.20;12.18;;;22.00;99.90;;;;;;5164001;28;20054;-75
2023/08/30 01:54:39;;;;;;;14.77;13.27;;;22.10;99.90;;;;;;5163738;28;20359;-73
2023/08/30 01:57:09;;;;;;;21.50;14.77;;;22.10;99.90;;;;;;5162226;28;20037;-76
2023/08/30 01:59:40;;;;;;;16.02;14.32;;;22.00;99.90;;;;;;5166830;28;20034;-74
2023/08/30 02:02:11;;;;;;;16.77;15.05;;;22.00;99.90;;;;;;5166279;28;20121;-75
2023/08/30 02:04:45;;;;;;;15.18;13.68;;;22.20;99.90;;;;;;5165405;28;20026;-77
2023/08/30 02:07:49;;;;;;;17.58;13.57;;;22.20;99.90;;;;;;5165994;28;20026;-78
2023/08/30 02:10:33;;;;;;;18.70;14.57;;;22.10;99.90;;;;;;5166578;28;20035;-73
2023/08/30 02:13:05;;;;;;;18.42;14.90;;;22.10;99.90;;;;;;5167435;28;20039;-75
2023/08/30 02:15:37;;;;;;;16.60;13.50;;;22.00;99.90;;;;;;5167601;28;20030;-76
2023/08/30 02:18:09;;;;;;;15.27;13.23;;;22.00;99.90;;;;;;5167510;28;20030;-76
2023/08/30 02:20:40;;;;;;;18.75;13.43;;;22.10;99.90;;;;;;5167451;28;20800;-76
2023/08/30 02:23:11;;;;;;;14.95;13.55;;;22.10;99.90;;;;;;5163313;28;20038;-75
2023/08/30 02:25:42;;;;;;;17.98;14.63;;;22.10;99.90;;;;;;5182208;28;20046;-74
2023/08/30 02:28:13;;;;;;;15.73;14.10;;;22.10;99.90;;;;;;5167456;28;20072;-77
2023/08/30 02:30:44;;;;;;;16.17;14.52;;;22.10;99.90;;;;;;5167141;28;20030;-76
2023/08/30 02:33:14;;;;;;;18.33;14.35;;;22.10;99.90;;;;;;5165758;28;20073;-75
2023/08/30 02:35:45;;;;;;;16.17;14.63;;;22.00;99.90;;;;;;5167118;28;20061;-74
2023/08/30 02:38:17;;;;;;;18.75;16.55;;;21.90;99.90;;;;;;5167112;28;20019;-74
2023/08/30 02:40:48;;;;;;;19.23;15.95;;;21.80;99.90;;;;;;5167131;28;20053;-74
2023/08/30 02:43:19;;;;;;;17.33;15.60;;;21.80;99.90;;;;;;5166893;28;20046;-74
2023/08/30 02:45:49;;;;;;;15.55;14.20;;;21.90;99.90;;;;;;5165772;28;20034;-72
2023/08/30 02:48:20;;;;;;;15.80;14.00;;;21.90;99.90;;;;;;5166900;28;20024;-74
2023/08/30 02:50:51;;;;;;;17.55;15.68;;;21.90;99.90;;;;;;5166582;28;20026;-75
2023/08/30 02:53:22;;;;;;;16.70;14.82;;;22.00;99.90;;;;;;5165745;28;20498;-74
2023/08/30 02:55:55;;;;;;;16.48;14.77;;;21.90;99.90;;;;;;5164565;28;20041;-74
2023/08/30 02:58:26;;;;;;;16.42;14.73;;;21.90;99.90;;;;;;5164171;28;20034;-71
2023/08/30 03:00:57;;;;;;;16.30;14.82;;;21.80;99.90;;;;;;5165250;28;20037;-71
2023/08/30 03:03:27;;;;;;;17.50;15.95;;;21.90;99.90;;;;;;5165396;28;20038;-72
2023/08/30 03:05:58;;;;;;;17.38;15.60;;;21.90;99.90;;;;;;5165266;28;20069;-73
2023/08/30 03:08:29;;;;;;;18.38;16.65;;;21.80;99.90;;;;;;5165065;28;20478;-73
2023/08/30 03:11:13;;;;;;;16.75;15.05;;;21.90;99.90;;;;;;5166014;28;20501;-72
2023/08/30 03:13:44;;;;;;;17.98;16.08;;;21.80;99.90;;;;;;5166430;28;20046;-75
2023/08/30 03:16:16;;;;;;;17.38;14.32;;;21.90;99.90;;;;;;5166438;28;20030;-71
2023/08/30 03:18:47;;;;;;;18.50;16.90;;;21.90;99.90;;;;;;5166457;28;20081;-73
2023/08/30 03:21:18;;;;;;;16.67;15.23;;;21.70;99.90;;;;;;5155195;28;20035;-73
2023/08/30 03:23:49;;;;;;;17.20;14.50;;;21.70;99.90;;;;;;5154128;28;20372;-73
2023/08/30 03:26:20;;;;;;;18.17;15.20;;;21.80;99.90;;;;;;5146324;28;20026;-73
2023/08/30 03:28:50;;;;;;;17.80;15.65;;;22.00;99.90;;;;;;5152919;28;20021;-73
2023/08/30 03:31:21;;;;;;;23.90;15.57;;;21.80;99.90;;;;;;5166045;28;20096;-71
2023/08/30 03:33:52;;;;;;;19.20;17.20;;;21.90;99.90;;;;;;5166266;28;20034;-76
2023/08/30 03:36:23;;;;;;;19.02;17.23;;;21.90;99.90;;;;;;5165924;28;20025;-72
2023/08/30 03:38:54;;;;;;;19.27;16.77;;;21.80;99.90;;;;;;5166185;28;20022;-71
2023/08/30 03:41:25;;;;;;;17.13;15.45;;;21.90;99.90;;;;;;5166038;28;20073;-76
2023/08/30 03:43:56;;;;;;;18.45;16.60;;;21.90;99.90;;;;;;5165947;28;20030;-73
2023/08/30 03:46:27;;;;;;;17.95;14.93;;;21.80;99.90;;;;;;5165663;28;20041;-74
2023/08/30 03:48:57;;;;;;;18.58;16.15;;;21.80;99.90;;;;;;5165262;28;20069;-74
2023/08/30 03:51:28;;;;;;;18.30;16.38;;;21.80;99.90;;;;;;5160031;28;20602;-71
2023/08/30 04:05:10;;;;;;;18.55;15.75;;;21.80;99.90;;;;;;5307354;27;20414;-72
2023/08/30 04:07:41;;;;;;;16.95;15.40;;;21.60;99.90;;;;;;5307444;27;20143;-71
2023/08/30 04:10:12;;;;;;;17.83;15.10;;;21.90;99.90;;;;;;5307550;28;20085;-69
2023/08/30 04:12:42;;;;;;;18.05;15.52;;;21.90;99.90;;;;;;5307191;28;20034;-69
2023/08/30 04:15:14;;;;;;;17.35;15.57;;;21.90;99.90;;;;;;5293037;27;20089;-70
2023/08/30 04:17:46;;;;;;;16.48;14.90;;;21.80;99.90;;;;;;5286050;28;20004;-70
2023/08/30 04:20:16;;;;;;;16.92;14.70;;;21.90;99.90;;;;;;5285523;28;20038;-70
2023/08/30 04:22:47;;;;;;;16.23;14.02;;;22.00;99.90;;;;;;5284887;28;20028;-70
2023/08/30 04:25:18;;;;;;;15.43;12.77;;;22.00;99.90;;;;;;5285705;28;20069;-70
2023/08/30 04:27:49;;;;;;;16.40;12.85;;;22.10;99.90;;;;;;5285830;28;20672;-69
2023/08/30 04:30:19;;;;;;;13.38;12.07;;;22.00;99.90;;;;;;5285788;28;20019;-71
2023/08/30 04:32:51;;;;;;;13.93;12.30;;;22.10;99.90;;;;;;5285655;28;20042;-71
2023/08/30 04:35:21;;;;;;;12.73;11.60;;;22.20;99.90;;;;;;5285529;28;20093;-70
2023/08/30 04:37:52;;;;;;;13.75;12.50;;;22.10;99.90;;;;;;5285665;28;20016;-70
2023/08/30 04:40:23;;;;;;;12.68;11.45;;;22.20;99.90;;;;;;5285389;28;20035;-70
2023/08/30 04:42:54;;;;;;;14.30;12.90;;;22.20;99.90;;;;;;5285173;28;20145;-69
2023/08/30 04:45:25;;;;;;;13.85;12.35;;;22.20;99.90;;;;;;5266549;28;20036;-69
2023/08/30 04:47:55;;;;;;;13.05;11.68;;;22.30;99.90;;;;;;5284235;28;20028;-72
2023/08/30 04:50:26;;;;;;;18.48;11.23;;;22.40;99.90;;;;;;5281492;28;20383;-69
2023/08/30 04:52:58;;;;;;;13.05;11.20;;;22.60;99.90;;;;;;5262695;28;20735;-74
2023/08/30 04:55:29;;;;;;;11.27;10.27;;;22.60;99.90;;;;;;5262435;28;20039;-70
2023/08/30 04:58:00;;;;;;;11.88;10.77;;;22.50;99.90;;;;;;5262729;28;20425;-70
2023/08/30 05:00:31;;;;;;;11.95;10.85;;;22.60;99.90;;;;;;5262597;28;20107;-70
2023/08/30 05:03:02;;;;;;;14.05;11.52;;;22.70;99.90;;;;;;5263149;28;20045;-71
2023/08/30 05:05:34;;;;;;;11.50;10.32;;;22.90;99.90;;;;;;5253105;28;20433;-70
2023/08/30 05:08:05;;;;;;;13.48;10.82;;;22.80;99.90;;;;;;5249821;28;20059;-72
2023/08/30 05:10:36;;;;;;;11.73;10.50;;;23.00;99.90;;;;;;5249761;28;20053;-69
2023/08/30 05:13:07;;;;;;;13.80;10.02;;;22.90;99.90;;;;;;5249651;28;20480;-69
2023/08/30 05:15:38;;;;;;;11.15;10.05;;;23.10;99.90;;;;;;5249597;28;20029;-69
2023/08/30 05:18:08;;;;;;;12.00;10.25;;;23.20;99.90;;;;;;5249612;28;20033;-70
2023/08/30 05:20:39;;;;;;;10.93;9.82;;;23.20;99.90;;;;;;5249143;28;20024;-70
2023/08/30 05:23:10;;;;;;;11.80;10.10;;;23.40;99.90;;;;;;5248494;28;20023;-69
2023/08/30 05:25:41;;;;;;;11.30;10.15;;;23.60;99.90;;;;;;5248137;28;20391;-69
2023/08/30 05:28:12;;;;;;;11.07;9.98;;;23.60;99.90;;;;;;5248108;28;20020;-71
2023/08/30 05:30:44;;;;;;;15.13;10.50;;;23.70;99.90;;;;;;5248015;28;20041;-71
2023/08/30 05:33:15;;;;;;;11.25;10.18;;;23.70;99.90;;;;;;5247876;28;20036;-71
2023/08/30 05:35:46;;;;;;;10.60;9.70;;;23.90;99.90;;;;;;5247849;28;20028;-71
2023/08/30 05:38:16;;;;;;;11.43;10.10;;;24.10;99.90;;;;;;5248784;28;20028;-71
2023/08/30 05:40:47;;;;;;;11.43;10.52;;;24.00;99.90;;;;;;5231342;28;20032;-70
2023/08/30 05:43:18;;;;;;;11.80;10.75;;;24.20;99.90;;;;;;5249096;28;20082;-70
2023/08/30 05:45:49;;;;;;;11.68;10.73;;;24.30;99.90;;;;;;5248310;28;20030;-72
2023/08/30 05:48:19;;;;;;;12.30;11.05;;;24.60;99.90;;;;;;5248420;28;20024;-70
2023/08/30 05:50:50;;;;;;;13.48;12.38;;;24.70;99.90;;;;;;5247267;28;20359;-75
2023/08/30 05:53:21;;;;;;;13.15;12.05;;;24.70;99.90;;;;;;5247557;28;20036;-75
2023/08/30 05:55:52;;;;;;;21.10;14.35;;;24.90;99.90;;;;;;5247514;28;20099;-72
2023/08/30 05:58:22;;;;;;;16.38;13.57;;;25.00;99.90;;;;;;5247567;28;20071;-71
2023/08/30 06:00:53;;;;;;;14.90;13.68;;;25.20;99.90;;;;;;5247443;28;20032;-76
2023/08/30 06:03:24;;;;;;;13.60;12.48;;;25.20;99.90;;;;;;5247111;28;20803;-76
2023/08/30 06:05:55;;;;;;;14.57;13.27;;;25.40;99.90;;;;;;5248636;28;20517;-76
2023/08/30 06:08:25;;;;;;;14.43;13.13;;;25.50;99.90;;;;;;5248210;28;20060;-76
2023/08/30 06:10:56;;;;;;;15.10;13.68;;;25.60;99.90;;;;;;5247194;28;20036;-75
2023/08/30 06:13:27;;;;;;;13.85;12.73;;;25.70;99.90;;;;;;5246853;28;20098;-75
2023/08/30 06:15:58;;;;;;;14.63;13.07;;;25.80;99.90;;;;;;5261516;28;20664;-76
2023/08/30 06:18:31;;;;;;;14.07;12.60;;;25.90;99.90;;;;;;5268022;28;20665;-71
2023/08/30 06:21:03;;;;;;;14.68;13.38;;;26.10;99.90;;;;;;5268688;28;20023;-76
2023/08/30 06:23:37;;;;;;;13.95;12.63;;;26.10;99.90;;;;;;5269226;28;20418;-75
2023/08/30 06:26:08;;;;;;;13.43;12.20;;;26.10;99.90;;;;;;5267860;28;20077;-74
2023/08/30 06:28:38;;;;;;;13.10;12.02;;;26.30;99.90;;;;;;5267984;28;20459;-74
2023/08/30 06:31:09;;;;;;;13.20;12.13;;;26.40;99.90;;;;;;5267887;28;20016;-76
2023/08/30 06:33:40;;;;;;;14.18;12.80;;;26.60;99.90;;;;;;5267793;28;20047;-74
2023/08/30 06:36:15;;;;;;;15.70;14.57;;;26.70;99.90;;;;;;5267617;28;20514;-73
2023/08/30 06:38:46;;;;;;;14.73;13.20;;;26.80;99.90;;;;;;5268779;28;20028;-69
2023/08/30 06:41:17;;;;;;;15.20;14.13;;;26.80;99.90;;;;;;5267660;28;20030;-70
2023/08/30 06:43:48;;;;;;;14.02;12.82;;;26.90;99.90;;;;;;5267615;28;20107;-75
2023/08/30 06:46:18;;;;;;;16.17;14.80;;;27.10;99.90;;;;;;5266640;28;20031;-74
2023/08/30 06:48:49;;;;;;;16.52;15.13;;;27.20;99.90;;;;;;5267457;28;20093;-75
2023/08/30 06:51:20;;;;;;;18.83;17.33;;;27.30;99.90;;;;;;5267772;28;20372;-70
2023/08/30 06:53:51;;;;;;;16.98;15.40;;;27.40;99.90;;;;;;5267318;28;20119;-74
2023/08/30 06:56:21;;;;;;;17.65;16.15;;;27.40;99.90;;;;;;5267464;28;20514;-73
2023/08/30 06:58:52;;;;;;;15.32;14.02;;;27.40;99.90;;;;;;5268061;28;20480;-70
2023/08/30 07:01:23;;;;;;;14.25;13.00;;;27.50;99.90;;;;;;5268074;28;20043;-75
2023/08/30 07:03:54;;;;;;;13.35;12.18;;;27.60;99.90;;;;;;5267876;28;20184;-70
2023/08/30 07:06:29;;;;;;;11.65;10.70;;;27.70;99.90;;;;;;5268616;28;20028;-75
2023/08/30 07:09:00;;;;;;;11.93;10.60;;;27.90;99.90;;;;;;5268667;28;20395;-75
2023/08/30 07:11:31;;;;;;;10.50;9.55;;;27.90;99.90;;;;;;5268486;28;20050;-75
2023/08/30 07:14:02;;;;;;;10.20;9.20;;;28.00;99.90;;;;;;5267940;28;20040;-71
2023/08/30 07:16:33;;;;;;;10.13;9.13;;;28.10;99.90;;;;;;5268061;28;20028;-74
2023/08/30 07:19:04;;;;;;;11.73;10.52;;;28.20;99.90;;;;;;5267423;28;20020;-75
2023/08/30 07:21:37;;;;;;;12.82;11.60;;;28.10;99.90;;;;;;5267819;28;20020;-75
2023/08/30 07:24:08;;;;;;;12.98;11.52;;;28.20;99.90;;;;;;5267615;28;20116;-75
2023/08/30 07:26:39;;;;;;;10.98;9.50;;;28.40;99.90;;;;;;5267734;28;20459;-73
2023/08/30 07:29:10;;;;;;;13.43;9.98;;;28.40;99.90;;;;;;5267612;28;20376;-71
2023/08/30 07:31:41;;;;;;;10.75;9.68;;;28.60;99.90;;;;;;5268094;28;20073;-71
2023/08/30 07:34:12;;;;;;;10.38;9.27;;;28.60;99.90;;;;;;5267885;28;20149;-72
2023/08/30 07:36:43;;;;;;;18.92;9.57;;;28.60;99.90;;;;;;5270610;28;20030;-75
2023/08/30 07:39:14;;;;;;;10.90;8.18;;;28.80;99.90;;;;;;5260255;28;20358;-70
2023/08/30 07:41:44;;;;;;;9.43;8.63;;;28.90;99.90;;;;;;5267540;28;20024;-73
2023/08/30 07:44:16;;;;;;;11.13;6.78;;;28.90;99.90;;;;;;5268181;28;20020;-76
2023/08/30 07:46:46;;;;;;;10.85;8.52;;;28.90;99.90;;;;;;5266499;28;20016;-76
2023/08/30 07:49:17;;;;;;;9.20;8.40;;;28.90;99.90;;;;;;5265819;28;20520;-76
2023/08/30 07:51:48;;;;;;;10.27;9.35;;;29.00;99.90;;;;;;5265214;28;20020;-71
2023/08/30 07:54:19;;;;;;;9.75;8.95;;;29.00;99.90;;;;;;5266198;28;20047;-74
2023/08/30 07:56:50;;;;;;;12.50;9.65;;;29.10;99.90;;;;;;5266148;28;20028;-71
2023/08/30 07:59:20;;;;;;;10.80;9.70;;;29.20;99.90;;;;;;5266445;28;20479;-70
2023/08/30 08:01:51;;;;;;;10.45;9.65;;;29.20;99.90;;;;;;5267776;28;20082;-76
2023/08/30 08:04:22;;;;;;;10.07;8.88;;;29.40;99.90;;;;;;5267569;28;20496;-71
2023/08/30 08:06:53;;;;;;;10.45;9.57;;;29.50;99.90;;;;;;5267907;28;20067;-76
2023/08/30 08:09:24;;;;;;;9.15;8.23;;;29.70;99.90;;;;;;5249254;28;20016;-72
2023/08/30 08:11:56;;;;;;;9.95;9.00;;;29.70;99.90;;;;;;5267111;28;20024;-73
2023/08/30 08:14:26;;;;;;;10.50;9.60;;;29.90;99.90;;;;;;5266611;28;20039;-72
2023/08/30 08:16:57;;;;;;;10.90;9.90;;;29.90;99.90;;;;;;5266478;28;20024;-76
2023/08/30 08:19:28;;;;;;;10.10;9.05;;;30.10;99.90;;;;;;5266354;28;20036;-70
2023/08/30 08:21:59;;;;;;;10.77;8.90;;;30.20;99.90;;;;;;5266218;28;20024;-72
2023/08/30 08:24:30;;;;;;;11.68;8.57;;;30.20;99.90;;;;;;5266144;28;20050;-73
2023/08/30 08:27:01;;;;;;;9.35;8.50;;;30.20;99.90;;;;;;5266314;28;20383;-71
2023/08/30 08:29:32;;;;;;;8.95;7.68;;;30.40;99.90;;;;;;5267195;28;20028;-75
2023/08/30 08:32:03;;;;;;;7.50;6.80;;;30.50;99.90;;;;;;5267497;28;20379;-72
2023/08/30 08:34:34;;;;;;;13.95;6.90;;;30.40;99.90;;;;;;5267222;28;20051;-70
2023/08/30 08:37:06;;;;;;;7.80;6.85;;;30.50;99.90;;;;;;5267235;28;20103;-71
2023/08/30 08:39:37;;;;;;;12.18;7.65;;;30.70;99.90;;;;;;5267611;28;20060;-71
2023/08/30 08:42:08;;;;;;;10.13;8.15;;;30.90;99.90;;;;;;5270593;28;20510;-73
2023/08/30 08:44:40;;;;;;;11.05;8.70;;;31.00;99.90;;;;;;5271272;28;20071;-71
2023/08/30 08:47:11;;;;;;;9.85;7.10;;;30.90;99.90;;;;;;5271173;28;20032;-72
2023/08/30 08:49:43;;;;;;;13.27;6.85;;;31.00;99.90;;;;;;5271295;28;20371;-70
2023/08/30 08:52:15;;;;;;;7.63;6.90;;;30.90;99.90;;;;;;5271192;28;20028;-71
2023/08/30 08:54:45;;;;;;;13.32;7.18;;;31.10;99.90;;;;;;5270976;28;20028;-72
2023/08/30 08:57:17;;;;;;;9.15;7.10;;;31.10;99.90;;;;;;5271165;28;20031;-71
2023/08/30 08:59:47;;;;;;;7.43;6.30;;;31.20;99.90;;;;;;5271101;28;20016;-71
2023/08/30 09:02:19;;;;;;;8.75;6.55;;;31.50;99.90;;;;;;5270875;28;20669;-71
2023/08/30 09:04:50;;;;;;;8.60;6.47;;;31.50;99.90;;;;;;5270781;28;20503;-71
2023/08/30 09:07:21;;;;;;;6.88;5.97;;;31.50;99.90;;;;;;5270993;28;20039;-76
2023/08/30 09:09:52;;;;;;;6.85;6.15;;;31.50;99.90;;;;;;5271053;28;20074;-71
2023/08/30 09:12:23;;;;;;;7.60;5.70;;;31.80;99.90;;;;;;5270779;28;20066;-76
2023/08/30 09:14:57;;;;;;;7.50;6.78;;;31.80;99.90;;;;;;5270837;28;20064;-71
2023/08/30 09:17:39;;;;;;;9.38;7.38;;;31.70;99.90;;;;;;5270915;28;20071;-70
2023/08/30 09:20:11;;;;;;;8.70;7.45;;;31.80;99.90;;;;;;5270897;28;20782;-71
2023/08/30 09:22:43;;;;;;;12.27;7.70;;;32.00;99.90;;;;;;5270532;28;20012;-71
2023/08/30 09:25:26;;;;;;;13.40;8.70;;;32.10;99.90;;;;;;5270938;28;20035;-72
2023/08/30 09:28:00;;;;;;;9.98;7.32;;;32.30;99.90;;;;;;5288264;28;20020;-72
2023/08/30 09:30:32;;;;;;;10.85;8.15;;;32.00;99.90;;;;;;5281718;28;20057;-72
2023/08/30 09:33:04;;;;;;;8.13;7.32;;;32.20;99.90;;;;;;5274322;28;20093;-73
2023/08/30 09:35:43;;;;;;;11.25;7.43;;;32.30;99.90;;;;;;5265188;28;20023;-71
2023/08/30 09:38:20;;;;;;;8.13;6.78;;;32.20;99.90;;;;;;5265818;28;20089;-71
2023/08/30 09:40:52;;;;;;;9.40;6.85;;;32.40;99.90;;;;;;5268429;28;20103;-71
2023/08/30 09:43:23;;;;;;;8.27;6.43;;;32.50;99.90;;;;;;5269191;28;20023;-70
2023/08/30 09:45:54;;;;;;;10.88;6.53;;;32.50;99.90;;;;;;5269885;28;20411;-72
2023/08/30 09:48:29;;;;;;;8.20;6.72;;;32.60;99.90;;;;;;5270143;28;20008;-71
2023/08/30 09:51:03;;;;;;;9.48;6.82;;;32.80;99.90;;;;;;5269961;28;20471;-74
2023/08/30 09:53:42;;;;;;;9.93;7.22;;;32.60;99.90;;;;;;5269726;28;20040;-75
2023/08/30 09:56:14;;;;;;;11.02;7.72;;;32.80;99.90;;;;;;5268555;28;20024;-71
2023/08/30 09:58:46;;;;;;;11.60;7.47;;;32.80;99.90;;;;;;5268316;28;20024;-71
2023/08/30 10:01:17;;;;;;;10.48;8.93;;;32.90;99.90;;;;;;5268170;28;20024;-76
2023/08/30 10:03:49;;;;;;;12.32;8.30;;;32.90;99.90;;;;;;5268115;28;20051;-77
2023/08/30 10:06:21;;;;;;;9.05;8.15;;;32.80;99.90;;;;;;5268597;28;20035;-72
2023/08/30 10:08:54;;;;;;;7.53;6.75;;;33.00;99.90;;;;;;5268957;28;20027;-74
2023/08/30 10:11:29;;;;;;;7.55;6.80;;;33.20;99.90;;;;;;5266583;28;20249;-71
2023/08/30 10:14:00;;;;;;;9.02;6.70;;;33.10;99.90;;;;;;5251286;28;20047;-71
2023/08/30 10:16:41;;;;;;;6.95;6.07;;;33.20;99.90;;;;;;5269480;28;20479;-73
2023/08/30 10:19:17;;;;;;;8.52;5.65;;;33.30;99.90;;;;;;5269239;28;20032;-71
2023/08/30 10:21:53;;;;;;;8.55;7.00;;;33.30;99.90;;;;;;5268855;28;20028;-76
2023/08/30 10:24:25;;;;;;;7.80;7.00;;;33.40;99.90;;;;;;5267622;28;20024;-76
2023/08/30 10:26:59;;;;;;;10.60;6.25;;;33.60;99.90;;;;;;5267787;28;20393;-72
2023/08/30 10:29:33;;;;;;;7.30;6.47;;;33.60;99.90;;;;;;5267496;28;20024;-74
2023/08/30 10:32:06;;;;;;;7.10;6.40;;;33.60;99.90;;;;;;5267291;28;20039;-75
2023/08/30 10:34:37;;;;;;;13.52;6.88;;;33.70;99.90;;;;;;5267006;28;20051;-76
2023/08/30 10:37:11;;;;;;;14.82;7.30;;;33.80;99.90;;;;;;5268096;28;20016;-75
2023/08/30 10:39:43;;;;;;;8.88;6.25;;;33.80;99.90;;;;;;5266339;28;20024;-71
2023/08/30 10:42:15;;;;;;;9.65;5.97;;;33.80;99.90;;;;;;5268495;28;20020;-70
2023/08/30 10:44:57;;;;;;;11.25;6.55;;;33.80;99.90;;;;;;5268653;28;20478;-71
2023/08/30 10:47:29;;;;;;;6.55;5.95;;;33.80;99.90;;;;;;5250053;28;20488;-71
2023/08/30 10:50:04;;;;;;;12.07;6.25;;;34.00;99.90;;;;;;5268442;28;20490;-70
2023/08/30 10:52:35;;;;;;;9.77;6.20;;;33.80;99.90;;;;;;5267453;28;20617;-73
2023/08/30 10:55:11;;;;;;;11.02;6.82;;;33.90;99.90;;;;;;5267418;28;20035;-73
2023/08/30 10:57:44;;;;;;;8.35;6.82;;;33.60;99.90;;;;;;5265919;28;20070;-73
2023/08/30 11:00:18;;;;;;;7.10;6.40;;;33.60;99.90;;;;;;5266461;28;20032;-71
2023/08/30 11:02:50;;;;;;;13.25;6.30;;;33.80;99.90;;;;;;5265739;28;20032;-71
2023/08/30 11:05:23;;;;;;;9.15;6.40;;;33.70;99.90;;;;;;5266433;28;20036;-75
2023/08/30 11:07:54;;;;;;;10.10;6.82;;;33.70;99.90;;;;;;5268195;28;20063;-76
2023/08/30 11:10:25;;;;;;;8.65;7.18;;;33.60;99.90;;;;;;5260742;28;20068;-73
2023/08/30 11:12:56;;;;;;;9.07;7.18;;;33.80;99.90;;;;;;5267890;28;20035;-71
2023/08/30 11:15:27;;;;;;;19.42;7.20;;;33.70;99.90;;;;;;5268235;28;20095;-75
2023/08/30 11:18:04;;;;;;;6.97;6.28;;;33.80;99.90;;;;;;5267163;28;20032;-72
2023/08/30 11:20:35;;;;;;;11.65;7.93;;;33.80;99.90;;;;;;5267371;28;20075;-72
2023/08/30 11:23:05;;;;;;;12.15;6.68;;;33.70;99.90;;;;;;5267992;28;20052;-76
2023/08/30 11:25:36;;;;;;;8.13;6.68;;;33.70;99.90;;;;;;5268870;28;20024;-76
2023/08/30 11:28:07;;;;;;;8.35;6.55;;;33.90;99.90;;;;;;5267631;28;20031;-76
2023/08/30 11:30:41;;;;;;;7.43;6.68;;;33.80;99.90;;;;;;5267423;28;20024;-71
2023/08/30 11:33:12;;;;;;;9.52;6.90;;;34.00;99.90;;;;;;5267861;28;20028;-76
2023/08/30 11:35:43;;;;;;;8.10;6.78;;;33.80;99.90;;;;;;5267871;28;20101;-74
2023/08/30 11:38:14;;;;;;;7.22;6.57;;;33.90;99.90;;;;;;5268166;28;20039;-74
2023/08/30 11:40:45;;;;;;;8.02;7.22;;;33.70;99.90;;;;;;5268125;28;20060;-75
2023/08/30 11:43:17;;;;;;;7.90;7.20;;;33.60;99.90;;;;;;5268457;28;20020;-76
2023/08/30 11:45:56;;;;;;;8.90;6.55;;;33.70;99.90;;;;;;5268392;28;20024;-76
2023/08/30 11:48:27;;;;;;;7.95;6.68;;;33.80;99.90;;;;;;5268192;28;20016;-76
2023/08/30 11:50:59;;;;;;;6.65;6.05;;;34.00;99.90;;;;;;5268137;28;20035;-76
2023/08/30 11:53:30;;;;;;;7.60;6.53;;;33.90;99.90;;;;;;5267850;28;20024;-70
2023/08/30 11:56:01;;;;;;;17.45;7.38;;;33.70;99.90;;;;;;5267741;28;20039;-75
2023/08/30 11:58:36;;;;;;;12.70;9.82;;;34.00;99.90;;;;;;5268588;28;20066;-77
2023/08/30 12:01:07;;;;;;;9.95;7.97;;;34.00;99.90;;;;;;5274378;28;20027;-76
2023/08/30 12:03:38;;;;;;;8.05;6.65;;;33.90;99.90;;;;;;5268251;28;20055;-75
2023/08/30 12:06:12;;;;;;;8.43;6.30;;;33.90;99.90;;;;;;5268596;28;20027;-71
2023/08/30 12:08:43;;;;;;;7.55;6.70;;;33.80;99.90;;;;;;5271451;28;20008;-75
2023/08/30 12:11:20;;;;;;;8.77;7.35;;;33.90;99.90;;;;;;5267796;28;20023;-76
2023/08/30 12:13:51;;;;;;;7.53;6.63;;;34.00;99.90;;;;;;5249576;28;20375;-72
2023/08/30 12:16:22;;;;;;;8.40;6.30;;;34.00;99.90;;;;;;5270945;28;20016;-76
2023/08/30 12:18:52;;;;;;;10.80;9.48;;;33.50;99.90;;;;;;5253756;28;20021;-76
2023/08/30 12:21:23;;;;;;;10.20;7.65;;;33.60;99.90;;;;;;5270878;28;20352;-76
2023/08/30 12:24:03;;;;;;;7.25;6.07;;;33.90;99.90;;;;;;5271586;28;20038;-76
2023/08/30 12:26:34;;;;;;;6.75;6.03;;;33.80;99.90;;;;;;5269843;28;20032;-77
2023/08/30 12:29:06;;;;;;;8.40;6.22;;;33.80;99.90;;;;;;5267752;28;20024;-76
2023/08/30 12:31:37;;;;;;;7.20;6.35;;;33.90;99.90;;;;;;5271404;28;20408;-74
2023/08/30 12:34:08;;;;;;;7.50;6.10;;;34.00;99.90;;;;;;5271304;28;20081;-76
2023/08/30 12:36:39;;;;;;;9.75;6.10;;;34.00;99.90;;;;;;5271510;28;20402;-75
2023/08/30 12:39:09;;;;;;;9.43;6.88;;;33.90;99.90;;;;;;5271374;28;20020;-73
2023/08/30 12:41:42;;;;;;;9.10;6.82;;;33.60;99.90;;;;;;5270774;28;20024;-76
2023/08/30 12:44:14;;;;;;;8.45;6.47;;;33.60;99.90;;;;;;5271213;28;20051;-75
2023/08/30 12:46:45;;;;;;;10.05;7.20;;;33.70;99.90;;;;;;5271094;28;20036;-73
2023/08/30 12:49:16;;;;;;;8.38;6.80;;;33.60;99.90;;;;;;5271266;28;20447;-74
2023/08/30 12:51:46;;;;;;;8.00;7.22;;;33.50;99.90;;;;;;5271151;28;20093;-75
2023/08/30 12:54:17;;;;;;;8.23;7.22;;;33.40;99.90;;;;;;5270954;28;20047;-70
2023/08/30 12:56:48;;;;;;;8.07;7.38;;;33.50;99.90;;;;;;5271351;28;20024;-77
2023/08/30 12:59:19;;;;;;;8.80;7.75;;;33.50;99.90;;;;;;5271468;28;20431;-73
2023/08/30 13:01:50;;;;;;;8.82;7.85;;;33.40;99.90;;;;;;5271241;28;20042;-71
2023/08/30 13:04:20;;;;;;;9.48;8.20;;;33.30;99.90;;;;;;5252714;28;20175;-76
2023/08/30 13:06:52;;;;;;;8.30;7.55;;;33.30;99.90;;;;;;5271071;28;20482;-75
2023/08/30 13:09:23;;;;;;;9.07;8.05;;;33.40;99.90;;;;;;5271121;28;20032;-74